sensor_id;sensor_type;location;lat;lon;timestamp;P1;durP1;ratioP1;P2;durP2;ratioP2
40162;SDS011;25881;47.462;19.304;2023-07-31T00:02:15;6.07;;;2.73;;
40162;SDS011;25881;47.462;19.304;2023-07-31T00:04:40;4.13;;;2.23;;
40162;SDS011;25881;47.462;19.304;2023-07-31T00:07:05;2.87;;;2.23;;
40162;SDS011;25881;47.462;19.304;2023-07-31T00:09:32;3.72;;;2.42;;
40162;SDS011;25881;47.462;19.304;2023-07-31T00:11:57;2.63;;;2.13;;
40162;SDS011;25881;47.462;19.304;2023-07-31T00:14:22;3.13;;;2.07;;
40162;SDS011;25881;47.462;19.304;2023-07-31T00:16:47;6.90;;;2.40;;
40162;SDS011;25881;47.462;19.304;2023-07-31T00:19:13;3.07;;;2.20;;
40162;SDS011;25881;47.462;19.304;2023-07-31T00:21:38;3.57;;;2.10;;
40162;SDS011;25881;47.462;19.304;2023-07-31T00:24:03;3.60;;;2.40;;
40162;SDS011;25881;47.462;19.304;2023-07-31T00:26:29;2.72;;;2.42;;
40162;SDS011;25881;47.462;19.304;2023-07-31T00:28:54;2.97;;;2.33;;
40162;SDS011;25881;47.462;19.304;2023-07-31T00:31:19;5.37;;;2.53;;
40162;SDS011;25881;47.462;19.304;2023-07-31T00:33:44;3.73;;;2.37;;
40162;SDS011;25881;47.462;19.304;2023-07-31T00:36:09;4.03;;;2.50;;
40162;SDS011;25881;47.462;19.304;2023-07-31T00:38:35;4.43;;;2.97;;
40162;SDS011;25881;47.462;19.304;2023-07-31T00:41:00;3.13;;;2.37;;
40162;SDS011;25881;47.462;19.304;2023-07-31T00:43:25;5.27;;;2.50;;
40162;SDS011;25881;47.462;19.304;2023-07-31T00:45:50;3.80;;;2.30;;
40162;SDS011;25881;47.462;19.304;2023-07-31T00:48:16;4.10;;;2.57;;
40162;SDS011;25881;47.462;19.304;2023-07-31T00:50:41;3.73;;;2.43;;
40162;SDS011;25881;47.462;19.304;2023-07-31T00:53:06;5.53;;;2.67;;
40162;SDS011;25881;47.462;19.304;2023-07-31T00:55:31;4.97;;;2.40;;
40162;SDS011;25881;47.462;19.304;2023-07-31T00:57:57;3.60;;;2.35;;
40162;SDS011;25881;47.462;19.304;2023-07-31T01:00:22;4.43;;;2.83;;
40162;SDS011;25881;47.462;19.304;2023-07-31T01:02:48;5.80;;;2.70;;
40162;SDS011;25881;47.462;19.304;2023-07-31T01:05:14;3.10;;;2.40;;
40162;SDS011;25881;47.462;19.304;2023-07-31T01:07:42;3.73;;;2.53;;
40162;SDS011;25881;47.462;19.304;2023-07-31T01:10:23;4.80;;;2.60;;
40162;SDS011;25881;47.462;19.304;2023-07-31T01:12:50;3.47;;;2.28;;
40162;SDS011;25881;47.462;19.304;2023-07-31T01:15:16;3.28;;;2.40;;
40162;SDS011;25881;47.462;19.304;2023-07-31T01:17:42;3.05;;;2.50;;
40162;SDS011;25881;47.462;19.304;2023-07-31T01:20:11;3.90;;;2.70;;
40162;SDS011;25881;47.462;19.304;2023-07-31T01:27:40;3.57;;;2.70;;
40162;SDS011;25881;47.462;19.304;2023-07-31T01:30:11;3.42;;;2.47;;
40162;SDS011;25881;47.462;19.304;2023-07-31T01:32:42;3.58;;;2.45;;
40162;SDS011;25881;47.462;19.304;2023-07-31T01:35:07;3.53;;;2.67;;
40162;SDS011;25881;47.462;19.304;2023-07-31T01:37:33;3.80;;;2.42;;
40162;SDS011;25881;47.462;19.304;2023-07-31T01:39:59;3.60;;;2.40;;
40162;SDS011;25881;47.462;19.304;2023-07-31T01:42:24;4.20;;;3.23;;
40162;SDS011;25881;47.462;19.304;2023-07-31T01:44:49;2.80;;;2.30;;
40162;SDS011;25881;47.462;19.304;2023-07-31T01:47:14;3.30;;;2.10;;
40162;SDS011;25881;47.462;19.304;2023-07-31T01:49:39;6.28;;;2.80;;
40162;SDS011;25881;47.462;19.304;2023-07-31T01:52:05;6.00;;;2.70;;
40162;SDS011;25881;47.462;19.304;2023-07-31T01:54:30;3.28;;;2.53;;
40162;SDS011;25881;47.462;19.304;2023-07-31T01:56:55;3.90;;;2.67;;
40162;SDS011;25881;47.462;19.304;2023-07-31T01:59:21;4.23;;;2.90;;
40162;SDS011;25881;47.462;19.304;2023-07-31T02:01:46;4.17;;;3.53;;
40162;SDS011;25881;47.462;19.304;2023-07-31T02:04:11;5.07;;;3.30;;
40162;SDS011;25881;47.462;19.304;2023-07-31T02:06:36;4.30;;;3.47;;
40162;SDS011;25881;47.462;19.304;2023-07-31T02:09:02;6.37;;;3.97;;
40162;SDS011;25881;47.462;19.304;2023-07-31T02:11:28;5.90;;;4.13;;
40162;SDS011;25881;47.462;19.304;2023-07-31T02:13:53;8.98;;;5.15;;
40162;SDS011;25881;47.462;19.304;2023-07-31T02:16:19;6.90;;;4.10;;
40162;SDS011;25881;47.462;19.304;2023-07-31T02:18:44;5.30;;;3.70;;
40162;SDS011;25881;47.462;19.304;2023-07-31T02:21:09;5.47;;;3.87;;
40162;SDS011;25881;47.462;19.304;2023-07-31T02:23:34;5.07;;;4.17;;
40162;SDS011;25881;47.462;19.304;2023-07-31T02:26:00;5.10;;;4.00;;
40162;SDS011;25881;47.462;19.304;2023-07-31T02:28:25;13.33;;;4.67;;
40162;SDS011;25881;47.462;19.304;2023-07-31T02:30:50;5.07;;;3.67;;
40162;SDS011;25881;47.462;19.304;2023-07-31T02:33:16;4.85;;;3.63;;
40162;SDS011;25881;47.462;19.304;2023-07-31T02:35:41;6.73;;;4.03;;
40162;SDS011;25881;47.462;19.304;2023-07-31T02:38:06;7.43;;;4.43;;
40162;SDS011;25881;47.462;19.304;2023-07-31T02:40:32;7.30;;;4.00;;
40162;SDS011;25881;47.462;19.304;2023-07-31T02:42:57;6.37;;;3.93;;
40162;SDS011;25881;47.462;19.304;2023-07-31T02:45:22;5.90;;;3.87;;
40162;SDS011;25881;47.462;19.304;2023-07-31T02:47:47;7.00;;;3.43;;
40162;SDS011;25881;47.462;19.304;2023-07-31T02:50:13;4.90;;;3.77;;
40162;SDS011;25881;47.462;19.304;2023-07-31T02:52:38;7.23;;;3.17;;
40162;SDS011;25881;47.462;19.304;2023-07-31T02:55:03;5.83;;;3.70;;
40162;SDS011;25881;47.462;19.304;2023-07-31T02:57:28;5.25;;;3.22;;
40162;SDS011;25881;47.462;19.304;2023-07-31T02:59:54;5.17;;;3.60;;
40162;SDS011;25881;47.462;19.304;2023-07-31T03:02:19;4.47;;;3.28;;
40162;SDS011;25881;47.462;19.304;2023-07-31T03:04:44;7.03;;;4.17;;
40162;SDS011;25881;47.462;19.304;2023-07-31T03:07:10;4.65;;;3.38;;
40162;SDS011;25881;47.462;19.304;2023-07-31T03:09:35;5.37;;;4.07;;
40162;SDS011;25881;47.462;19.304;2023-07-31T03:12:00;4.57;;;3.53;;
40162;SDS011;25881;47.462;19.304;2023-07-31T03:14:25;4.77;;;3.57;;
40162;SDS011;25881;47.462;19.304;2023-07-31T03:16:54;5.57;;;3.95;;
40162;SDS011;25881;47.462;19.304;2023-07-31T03:19:19;8.03;;;4.30;;
40162;SDS011;25881;47.462;19.304;2023-07-31T03:21:44;4.50;;;3.60;;
40162;SDS011;25881;47.462;19.304;2023-07-31T03:24:09;5.67;;;4.33;;
40162;SDS011;25881;47.462;19.304;2023-07-31T03:26:34;5.90;;;4.32;;
40162;SDS011;25881;47.462;19.304;2023-07-31T03:29:01;6.28;;;4.10;;
40162;SDS011;25881;47.462;19.304;2023-07-31T03:31:26;5.13;;;3.67;;
40162;SDS011;25881;47.462;19.304;2023-07-31T03:33:51;7.63;;;4.50;;
40162;SDS011;25881;47.462;19.304;2023-07-31T03:36:17;8.90;;;4.60;;
40162;SDS011;25881;47.462;19.304;2023-07-31T03:38:42;5.30;;;4.20;;
40162;SDS011;25881;47.462;19.304;2023-07-31T03:41:07;6.90;;;4.20;;
40162;SDS011;25881;47.462;19.304;2023-07-31T03:43:32;5.63;;;4.40;;
40162;SDS011;25881;47.462;19.304;2023-07-31T03:46:00;6.45;;;4.47;;
40162;SDS011;25881;47.462;19.304;2023-07-31T03:48:26;6.10;;;4.05;;
40162;SDS011;25881;47.462;19.304;2023-07-31T03:50:51;5.47;;;3.87;;
40162;SDS011;25881;47.462;19.304;2023-07-31T03:53:16;7.90;;;4.13;;
40162;SDS011;25881;47.462;19.304;2023-07-31T03:55:41;6.77;;;4.87;;
40162;SDS011;25881;47.462;19.304;2023-07-31T03:58:07;7.13;;;4.07;;
40162;SDS011;25881;47.462;19.304;2023-07-31T04:00:32;6.73;;;4.20;;
40162;SDS011;25881;47.462;19.304;2023-07-31T04:02:57;5.50;;;3.80;;
40162;SDS011;25881;47.462;19.304;2023-07-31T04:05:22;5.17;;;3.93;;
40162;SDS011;25881;47.462;19.304;2023-07-31T04:07:48;7.17;;;4.23;;
40162;SDS011;25881;47.462;19.304;2023-07-31T04:10:13;5.30;;;3.63;;
40162;SDS011;25881;47.462;19.304;2023-07-31T04:12:38;8.70;;;3.30;;
40162;SDS011;25881;47.462;19.304;2023-07-31T04:15:03;6.53;;;4.23;;
40162;SDS011;25881;47.462;19.304;2023-07-31T04:17:29;5.95;;;3.90;;
40162;SDS011;25881;47.462;19.304;2023-07-31T04:19:54;6.60;;;3.20;;
40162;SDS011;25881;47.462;19.304;2023-07-31T04:22:19;12.07;;;3.47;;
40162;SDS011;25881;47.462;19.304;2023-07-31T04:24:44;5.90;;;3.60;;
40162;SDS011;25881;47.462;19.304;2023-07-31T04:27:10;4.55;;;3.13;;
40162;SDS011;25881;47.462;19.304;2023-07-31T04:29:35;5.30;;;3.57;;
40162;SDS011;25881;47.462;19.304;2023-07-31T04:32:00;4.40;;;3.03;;
40162;SDS011;25881;47.462;19.304;2023-07-31T04:34:25;4.72;;;3.53;;
40162;SDS011;25881;47.462;19.304;2023-07-31T04:36:51;4.80;;;3.00;;
40162;SDS011;25881;47.462;19.304;2023-07-31T04:39:16;5.87;;;3.33;;
40162;SDS011;25881;47.462;19.304;2023-07-31T04:41:41;6.47;;;3.40;;
40162;SDS011;25881;47.462;19.304;2023-07-31T04:44:06;9.77;;;2.77;;
40162;SDS011;25881;47.462;19.304;2023-07-31T04:46:32;7.55;;;2.90;;
40162;SDS011;25881;47.462;19.304;2023-07-31T04:48:57;4.63;;;2.80;;
40162;SDS011;25881;47.462;19.304;2023-07-31T04:51:22;6.17;;;3.07;;
40162;SDS011;25881;47.462;19.304;2023-07-31T04:53:48;4.03;;;3.00;;
40162;SDS011;25881;47.462;19.304;2023-07-31T04:56:13;4.63;;;3.07;;
40162;SDS011;25881;47.462;19.304;2023-07-31T04:58:40;5.35;;;2.78;;
40162;SDS011;25881;47.462;19.304;2023-07-31T05:01:05;4.20;;;2.57;;
40162;SDS011;25881;47.462;19.304;2023-07-31T05:03:31;4.57;;;2.70;;
40162;SDS011;25881;47.462;19.304;2023-07-31T05:05:56;3.97;;;2.80;;
40162;SDS011;25881;47.462;19.304;2023-07-31T05:08:21;5.93;;;2.77;;
40162;SDS011;25881;47.462;19.304;2023-07-31T05:10:46;3.90;;;2.35;;
40162;SDS011;25881;47.462;19.304;2023-07-31T05:13:12;7.32;;;2.83;;
40162;SDS011;25881;47.462;19.304;2023-07-31T05:15:37;3.40;;;2.57;;
40162;SDS011;25881;47.462;19.304;2023-07-31T05:18:04;7.15;;;2.70;;
40162;SDS011;25881;47.462;19.304;2023-07-31T05:20:29;3.63;;;2.43;;
40162;SDS011;25881;47.462;19.304;2023-07-31T05:22:54;7.20;;;2.80;;
40162;SDS011;25881;47.462;19.304;2023-07-31T05:25:19;5.63;;;3.20;;
40162;SDS011;25881;47.462;19.304;2023-07-31T05:27:45;5.35;;;2.60;;
40162;SDS011;25881;47.462;19.304;2023-07-31T05:30:10;5.50;;;2.83;;
40162;SDS011;25881;47.462;19.304;2023-07-31T05:32:35;6.75;;;2.80;;
40162;SDS011;25881;47.462;19.304;2023-07-31T05:35:00;4.27;;;2.47;;
40162;SDS011;25881;47.462;19.304;2023-07-31T05:37:26;4.20;;;2.20;;
40162;SDS011;25881;47.462;19.304;2023-07-31T05:39:51;3.57;;;2.13;;
40162;SDS011;25881;47.462;19.304;2023-07-31T05:42:17;6.28;;;2.00;;
40162;SDS011;25881;47.462;19.304;2023-07-31T05:44:42;5.22;;;2.30;;
40162;SDS011;25881;47.462;19.304;2023-07-31T05:47:07;3.60;;;2.30;;
40162;SDS011;25881;47.462;19.304;2023-07-31T05:49:32;6.70;;;2.17;;
40162;SDS011;25881;47.462;19.304;2023-07-31T05:51:58;6.87;;;2.40;;
40162;SDS011;25881;47.462;19.304;2023-07-31T05:54:23;6.57;;;2.42;;
40162;SDS011;25881;47.462;19.304;2023-07-31T05:56:48;5.80;;;2.30;;
40162;SDS011;25881;47.462;19.304;2023-07-31T05:59:14;3.85;;;2.47;;
40162;SDS011;25881;47.462;19.304;2023-07-31T06:01:39;4.70;;;2.03;;
40162;SDS011;25881;47.462;19.304;2023-07-31T06:04:04;3.28;;;2.38;;
40162;SDS011;25881;47.462;19.304;2023-07-31T06:06:30;5.57;;;2.30;;
40162;SDS011;25881;47.462;19.304;2023-07-31T06:08:55;4.25;;;2.13;;
40162;SDS011;25881;47.462;19.304;2023-07-31T06:11:20;2.88;;;1.70;;
40162;SDS011;25881;47.462;19.304;2023-07-31T06:13:46;8.05;;;2.33;;
40162;SDS011;25881;47.462;19.304;2023-07-31T06:16:13;7.90;;;2.28;;
40162;SDS011;25881;47.462;19.304;2023-07-31T06:18:38;3.45;;;1.90;;
40162;SDS011;25881;47.462;19.304;2023-07-31T06:21:03;5.33;;;2.20;;
40162;SDS011;25881;47.462;19.304;2023-07-31T06:23:29;4.43;;;2.03;;
40162;SDS011;25881;47.462;19.304;2023-07-31T06:25:54;6.13;;;1.87;;
40162;SDS011;25881;47.462;19.304;2023-07-31T06:28:19;3.90;;;1.93;;
40162;SDS011;25881;47.462;19.304;2023-07-31T06:30:44;2.80;;;1.60;;
40162;SDS011;25881;47.462;19.304;2023-07-31T06:33:10;2.60;;;1.80;;
40162;SDS011;25881;47.462;19.304;2023-07-31T06:35:35;4.23;;;1.90;;
40162;SDS011;25881;47.462;19.304;2023-07-31T06:38:00;4.33;;;1.87;;
40162;SDS011;25881;47.462;19.304;2023-07-31T06:40:27;7.05;;;2.08;;
40162;SDS011;25881;47.462;19.304;2023-07-31T06:42:52;8.15;;;2.10;;
40162;SDS011;25881;47.462;19.304;2023-07-31T06:45:17;6.90;;;2.10;;
40162;SDS011;25881;47.462;19.304;2023-07-31T06:47:43;4.90;;;1.97;;
40162;SDS011;25881;47.462;19.304;2023-07-31T06:50:08;4.80;;;1.73;;
40162;SDS011;25881;47.462;19.304;2023-07-31T06:52:33;5.13;;;1.85;;
40162;SDS011;25881;47.462;19.304;2023-07-31T06:55:02;4.60;;;1.92;;
40162;SDS011;25881;47.462;19.304;2023-07-31T06:57:28;2.67;;;1.50;;
40162;SDS011;25881;47.462;19.304;2023-07-31T06:59:53;4.47;;;1.60;;
40162;SDS011;25881;47.462;19.304;2023-07-31T07:02:19;3.33;;;1.50;;
40162;SDS011;25881;47.462;19.304;2023-07-31T07:04:44;6.37;;;2.07;;
40162;SDS011;25881;47.462;19.304;2023-07-31T07:07:09;3.40;;;1.60;;
40162;SDS011;25881;47.462;19.304;2023-07-31T07:09:35;2.83;;;1.60;;
40162;SDS011;25881;47.462;19.304;2023-07-31T07:12:01;5.47;;;1.75;;
40162;SDS011;25881;47.462;19.304;2023-07-31T07:14:26;5.30;;;1.83;;
40162;SDS011;25881;47.462;19.304;2023-07-31T07:16:51;3.73;;;1.87;;
40162;SDS011;25881;47.462;19.304;2023-07-31T07:19:17;4.10;;;1.60;;
40162;SDS011;25881;47.462;19.304;2023-07-31T07:21:42;6.33;;;2.00;;
40162;SDS011;25881;47.462;19.304;2023-07-31T07:24:07;6.77;;;1.60;;
40162;SDS011;25881;47.462;19.304;2023-07-31T07:26:32;6.60;;;1.60;;
40162;SDS011;25881;47.462;19.304;2023-07-31T07:28:58;6.67;;;2.10;;
40162;SDS011;25881;47.462;19.304;2023-07-31T07:31:23;6.30;;;1.80;;
40162;SDS011;25881;47.462;19.304;2023-07-31T07:33:48;4.53;;;1.70;;
40162;SDS011;25881;47.462;19.304;2023-07-31T07:36:13;6.10;;;1.73;;
40162;SDS011;25881;47.462;19.304;2023-07-31T07:38:39;7.00;;;1.87;;
40162;SDS011;25881;47.462;19.304;2023-07-31T07:41:04;4.15;;;1.40;;
40162;SDS011;25881;47.462;19.304;2023-07-31T07:43:29;4.93;;;2.30;;
40162;SDS011;25881;47.462;19.304;2023-07-31T07:45:54;3.87;;;1.63;;
40162;SDS011;25881;47.462;19.304;2023-07-31T07:48:21;4.03;;;2.10;;
40162;SDS011;25881;47.462;19.304;2023-07-31T07:50:47;5.32;;;1.70;;
40162;SDS011;25881;47.462;19.304;2023-07-31T07:53:13;2.63;;;1.70;;
40162;SDS011;25881;47.462;19.304;2023-07-31T07:55:39;2.80;;;1.77;;
40162;SDS011;25881;47.462;19.304;2023-07-31T07:58:04;9.00;;;2.17;;
40162;SDS011;25881;47.462;19.304;2023-07-31T08:00:29;5.13;;;2.10;;
40162;SDS011;25881;47.462;19.304;2023-07-31T08:02:54;4.03;;;2.07;;
40162;SDS011;25881;47.462;19.304;2023-07-31T08:05:22;4.67;;;1.83;;
40162;SDS011;25881;47.462;19.304;2023-07-31T08:07:47;4.63;;;1.90;;
40162;SDS011;25881;47.462;19.304;2023-07-31T08:10:12;3.93;;;2.00;;
40162;SDS011;25881;47.462;19.304;2023-07-31T08:12:37;6.37;;;2.27;;
40162;SDS011;25881;47.462;19.304;2023-07-31T08:15:03;6.50;;;1.80;;
40162;SDS011;25881;47.462;19.304;2023-07-31T08:17:28;5.78;;;2.35;;
40162;SDS011;25881;47.462;19.304;2023-07-31T08:19:54;3.67;;;1.93;;
40162;SDS011;25881;47.462;19.304;2023-07-31T08:22:19;4.47;;;1.80;;
40162;SDS011;25881;47.462;19.304;2023-07-31T08:24:44;6.50;;;2.10;;
40162;SDS011;25881;47.462;19.304;2023-07-31T08:27:09;3.03;;;2.00;;
40162;SDS011;25881;47.462;19.304;2023-07-31T08:29:34;3.50;;;1.60;;
40162;SDS011;25881;47.462;19.304;2023-07-31T08:32:00;6.37;;;2.00;;
40162;SDS011;25881;47.462;19.304;2023-07-31T08:34:25;8.88;;;1.90;;
40162;SDS011;25881;47.462;19.304;2023-07-31T08:36:50;8.63;;;2.20;;
40162;SDS011;25881;47.462;19.304;2023-07-31T08:39:15;4.23;;;2.03;;
40162;SDS011;25881;47.462;19.304;2023-07-31T08:41:41;5.20;;;1.47;;
40162;SDS011;25881;47.462;19.304;2023-07-31T08:44:09;5.90;;;2.47;;
40162;SDS011;25881;47.462;19.304;2023-07-31T08:46:35;4.80;;;1.67;;
40162;SDS011;25881;47.462;19.304;2023-07-31T08:49:02;4.47;;;2.03;;
40162;SDS011;25881;47.462;19.304;2023-07-31T08:51:28;3.92;;;1.85;;
40162;SDS011;25881;47.462;19.304;2023-07-31T08:53:54;8.30;;;1.52;;
40162;SDS011;25881;47.462;19.304;2023-07-31T08:56:20;5.32;;;1.70;;
40162;SDS011;25881;47.462;19.304;2023-07-31T08:58:45;2.88;;;1.80;;
40162;SDS011;25881;47.462;19.304;2023-07-31T09:01:11;4.53;;;1.70;;
40162;SDS011;25881;47.462;19.304;2023-07-31T09:03:36;6.90;;;1.70;;
40162;SDS011;25881;47.462;19.304;2023-07-31T09:06:03;3.92;;;1.70;;
40162;SDS011;25881;47.462;19.304;2023-07-31T09:08:31;2.28;;;1.38;;
40162;SDS011;25881;47.462;19.304;2023-07-31T09:10:59;4.20;;;1.90;;
40162;SDS011;25881;47.462;19.304;2023-07-31T09:13:24;4.47;;;1.60;;
40162;SDS011;25881;47.462;19.304;2023-07-31T09:15:49;5.07;;;2.00;;
40162;SDS011;25881;47.462;19.304;2023-07-31T09:18:15;3.90;;;1.30;;
40162;SDS011;25881;47.462;19.304;2023-07-31T09:20:43;8.52;;;1.92;;
40162;SDS011;25881;47.462;19.304;2023-07-31T09:23:10;4.00;;;1.50;;
40162;SDS011;25881;47.462;19.304;2023-07-31T09:25:35;5.50;;;1.83;;
40162;SDS011;25881;47.462;19.304;2023-07-31T09:28:02;3.22;;;1.52;;
40162;SDS011;25881;47.462;19.304;2023-07-31T09:30:28;6.72;;;1.90;;
40162;SDS011;25881;47.462;19.304;2023-07-31T09:33:04;4.38;;;1.55;;
40162;SDS011;25881;47.462;19.304;2023-07-31T09:35:32;4.40;;;1.55;;
40162;SDS011;25881;47.462;19.304;2023-07-31T09:37:58;8.55;;;1.85;;
40162;SDS011;25881;47.462;19.304;2023-07-31T09:40:33;5.60;;;1.80;;
40162;SDS011;25881;47.462;19.304;2023-07-31T09:43:03;3.92;;;1.50;;
40162;SDS011;25881;47.462;19.304;2023-07-31T09:45:28;8.02;;;1.80;;
40162;SDS011;25881;47.462;19.304;2023-07-31T09:47:54;5.15;;;1.48;;
40162;SDS011;25881;47.462;19.304;2023-07-31T09:50:21;5.10;;;1.80;;
40162;SDS011;25881;47.462;19.304;2023-07-31T09:52:46;7.75;;;1.90;;
40162;SDS011;25881;47.462;19.304;2023-07-31T09:55:12;5.13;;;1.73;;
40162;SDS011;25881;47.462;19.304;2023-07-31T09:57:38;6.20;;;1.63;;
40162;SDS011;25881;47.462;19.304;2023-07-31T10:00:04;3.35;;;1.60;;
40162;SDS011;25881;47.462;19.304;2023-07-31T10:02:30;5.97;;;1.75;;
40162;SDS011;25881;47.462;19.304;2023-07-31T10:04:57;5.28;;;1.70;;
40162;SDS011;25881;47.462;19.304;2023-07-31T10:07:23;6.38;;;1.98;;
40162;SDS011;25881;47.462;19.304;2023-07-31T10:09:50;3.90;;;1.67;;
40162;SDS011;25881;47.462;19.304;2023-07-31T10:12:16;2.80;;;1.55;;
40162;SDS011;25881;47.462;19.304;2023-07-31T10:14:43;3.80;;;1.52;;
40162;SDS011;25881;47.462;19.304;2023-07-31T10:17:09;6.43;;;2.13;;
40162;SDS011;25881;47.462;19.304;2023-07-31T10:19:35;3.08;;;1.55;;
40162;SDS011;25881;47.462;19.304;2023-07-31T10:22:02;3.55;;;1.42;;
40162;SDS011;25881;47.462;19.304;2023-07-31T10:24:28;4.78;;;1.98;;
40162;SDS011;25881;47.462;19.304;2023-07-31T10:26:54;6.63;;;1.73;;
40162;SDS011;25881;47.462;19.304;2023-07-31T10:29:22;6.03;;;1.50;;
40162;SDS011;25881;47.462;19.304;2023-07-31T10:32:22;3.58;;;1.50;;
40162;SDS011;25881;47.462;19.304;2023-07-31T10:34:43;3.22;;;1.60;;
40162;SDS011;25881;47.462;19.304;2023-07-31T10:37:28;5.03;;;1.50;;
40162;SDS011;25881;47.462;19.304;2023-07-31T10:40:00;4.00;;;1.77;;
40162;SDS011;25881;47.462;19.304;2023-07-31T10:45:32;5.05;;;1.42;;
40162;SDS011;25881;47.462;19.304;2023-07-31T10:48:25;6.47;;;1.90;;
40162;SDS011;25881;47.462;19.304;2023-07-31T10:51:02;4.72;;;1.30;;
40162;SDS011;25881;47.462;19.304;2023-07-31T10:53:41;3.88;;;2.03;;
40162;SDS011;25881;47.462;19.304;2023-07-31T10:56:43;3.40;;;1.25;;
40162;SDS011;25881;47.462;19.304;2023-07-31T10:59:05;4.90;;;1.40;;
40162;SDS011;25881;47.462;19.304;2023-07-31T11:02:34;11.38;;;1.90;;
40162;SDS011;25881;47.462;19.304;2023-07-31T11:04:35;3.95;;;1.40;;
40162;SDS011;25881;47.462;19.304;2023-07-31T11:07:00;4.13;;;1.50;;
40162;SDS011;25881;47.462;19.304;2023-07-31T11:09:28;3.53;;;1.35;;
40162;SDS011;25881;47.462;19.304;2023-07-31T11:11:55;6.30;;;1.90;;
40162;SDS011;25881;47.462;19.304;2023-07-31T11:14:20;5.05;;;2.00;;
40162;SDS011;25881;47.462;19.304;2023-07-31T11:16:45;2.40;;;1.43;;
40162;SDS011;25881;47.462;19.304;2023-07-31T11:19:11;6.23;;;1.60;;
40162;SDS011;25881;47.462;19.304;2023-07-31T11:21:38;2.47;;;1.63;;
40162;SDS011;25881;47.462;19.304;2023-07-31T11:24:04;3.08;;;1.70;;
40162;SDS011;25881;47.462;19.304;2023-07-31T11:26:30;6.97;;;1.80;;
40162;SDS011;25881;47.462;19.304;2023-07-31T11:28:56;4.72;;;1.60;;
40162;SDS011;25881;47.462;19.304;2023-07-31T11:31:21;6.20;;;2.13;;
40162;SDS011;25881;47.462;19.304;2023-07-31T11:34:03;3.47;;;1.70;;
40162;SDS011;25881;47.462;19.304;2023-07-31T11:36:29;3.45;;;1.55;;
40162;SDS011;25881;47.462;19.304;2023-07-31T11:38:54;4.73;;;1.60;;
40162;SDS011;25881;47.462;19.304;2023-07-31T11:41:28;5.40;;;2.00;;
40162;SDS011;25881;47.462;19.304;2023-07-31T11:44:03;4.43;;;2.22;;
40162;SDS011;25881;47.462;19.304;2023-07-31T11:46:31;5.18;;;1.90;;
40162;SDS011;25881;47.462;19.304;2023-07-31T11:49:00;5.65;;;1.83;;
40162;SDS011;25881;47.462;19.304;2023-07-31T11:51:26;3.88;;;2.03;;
40162;SDS011;25881;47.462;19.304;2023-07-31T11:53:56;3.30;;;1.55;;
40162;SDS011;25881;47.462;19.304;2023-07-31T11:56:22;7.18;;;1.58;;
40162;SDS011;25881;47.462;19.304;2023-07-31T11:59:06;5.75;;;2.20;;
40162;SDS011;25881;47.462;19.304;2023-07-31T12:01:33;4.60;;;1.88;;
40162;SDS011;25881;47.462;19.304;2023-07-31T12:03:58;4.32;;;1.80;;
40162;SDS011;25881;47.462;19.304;2023-07-31T12:06:42;7.00;;;1.67;;
40162;SDS011;25881;47.462;19.304;2023-07-31T12:09:08;2.38;;;1.42;;
40162;SDS011;25881;47.462;19.304;2023-07-31T12:11:43;6.43;;;1.90;;
40162;SDS011;25881;47.462;19.304;2023-07-31T12:14:18;4.13;;;1.50;;
40162;SDS011;25881;47.462;19.304;2023-07-31T12:16:44;4.43;;;1.90;;
40162;SDS011;25881;47.462;19.304;2023-07-31T12:19:09;8.85;;;1.80;;
40162;SDS011;25881;47.462;19.304;2023-07-31T12:21:34;4.17;;;1.50;;
40162;SDS011;25881;47.462;19.304;2023-07-31T12:23:59;4.53;;;1.60;;
40162;SDS011;25881;47.462;19.304;2023-07-31T12:26:25;6.27;;;2.03;;
40162;SDS011;25881;47.462;19.304;2023-07-31T12:28:58;6.63;;;1.92;;
40162;SDS011;25881;47.462;19.304;2023-07-31T12:31:23;5.73;;;1.60;;
40162;SDS011;25881;47.462;19.304;2023-07-31T12:33:52;4.70;;;1.60;;
40162;SDS011;25881;47.462;19.304;2023-07-31T12:36:21;4.68;;;1.55;;
40162;SDS011;25881;47.462;19.304;2023-07-31T12:38:46;4.22;;;1.58;;
40162;SDS011;25881;47.462;19.304;2023-07-31T12:41:11;9.50;;;1.57;;
40162;SDS011;25881;47.462;19.304;2023-07-31T12:43:37;6.37;;;1.73;;
40162;SDS011;25881;47.462;19.304;2023-07-31T12:46:02;5.10;;;1.83;;
40162;SDS011;25881;47.462;19.304;2023-07-31T12:48:28;4.55;;;1.75;;
40162;SDS011;25881;47.462;19.304;2023-07-31T12:50:53;3.80;;;1.67;;
40162;SDS011;25881;47.462;19.304;2023-07-31T12:53:18;7.40;;;1.73;;
40162;SDS011;25881;47.462;19.304;2023-07-31T12:55:44;5.33;;;1.77;;
40162;SDS011;25881;47.462;19.304;2023-07-31T12:58:09;6.53;;;1.80;;
40162;SDS011;25881;47.462;19.304;2023-07-31T13:00:34;5.43;;;1.77;;
40162;SDS011;25881;47.462;19.304;2023-07-31T13:03:00;4.20;;;1.70;;
40162;SDS011;25881;47.462;19.304;2023-07-31T13:05:26;4.22;;;1.83;;
40162;SDS011;25881;47.462;19.304;2023-07-31T13:07:51;4.53;;;1.52;;
40162;SDS011;25881;47.462;19.304;2023-07-31T13:10:17;5.33;;;1.40;;
40162;SDS011;25881;47.462;19.304;2023-07-31T13:12:42;4.47;;;1.63;;
40162;SDS011;25881;47.462;19.304;2023-07-31T13:15:08;5.63;;;1.80;;
40162;SDS011;25881;47.462;19.304;2023-07-31T13:17:33;5.18;;;1.42;;
40162;SDS011;25881;47.462;19.304;2023-07-31T13:19:58;3.07;;;1.50;;
40162;SDS011;25881;47.462;19.304;2023-07-31T13:22:24;2.97;;;1.70;;
40162;SDS011;25881;47.462;19.304;2023-07-31T13:24:49;2.80;;;1.63;;
40162;SDS011;25881;47.462;19.304;2023-07-31T13:27:14;11.93;;;2.60;;
40162;SDS011;25881;47.462;19.304;2023-07-31T13:29:44;6.82;;;1.63;;
40162;SDS011;25881;47.462;19.304;2023-07-31T13:32:10;3.83;;;1.80;;
40162;SDS011;25881;47.462;19.304;2023-07-31T13:34:35;4.88;;;1.85;;
40162;SDS011;25881;47.462;19.304;2023-07-31T13:37:00;6.40;;;1.80;;
40162;SDS011;25881;47.462;19.304;2023-07-31T13:39:26;6.40;;;1.88;;
40162;SDS011;25881;47.462;19.304;2023-07-31T13:41:51;3.03;;;1.50;;
40162;SDS011;25881;47.462;19.304;2023-07-31T13:44:16;3.27;;;1.40;;
40162;SDS011;25881;47.462;19.304;2023-07-31T13:46:41;4.37;;;1.47;;
40162;SDS011;25881;47.462;19.304;2023-07-31T13:49:06;5.43;;;1.60;;
40162;SDS011;25881;47.462;19.304;2023-07-31T13:51:32;4.07;;;1.63;;
40162;SDS011;25881;47.462;19.304;2023-07-31T13:53:57;5.47;;;1.40;;
40162;SDS011;25881;47.462;19.304;2023-07-31T13:56:22;7.57;;;1.90;;
40162;SDS011;25881;47.462;19.304;2023-07-31T13:58:47;2.10;;;1.40;;
40162;SDS011;25881;47.462;19.304;2023-07-31T14:01:12;3.17;;;1.40;;
40162;SDS011;25881;47.462;19.304;2023-07-31T14:03:38;6.43;;;2.00;;
40162;SDS011;25881;47.462;19.304;2023-07-31T14:06:03;5.50;;;1.97;;
40162;SDS011;25881;47.462;19.304;2023-07-31T14:08:29;3.90;;;1.50;;
40162;SDS011;25881;47.462;19.304;2023-07-31T14:10:54;4.43;;;1.80;;
40162;SDS011;25881;47.462;19.304;2023-07-31T14:13:19;5.63;;;1.90;;
40162;SDS011;25881;47.462;19.304;2023-07-31T14:15:44;4.07;;;1.80;;
40162;SDS011;25881;47.462;19.304;2023-07-31T14:18:10;7.13;;;1.60;;
40162;SDS011;25881;47.462;19.304;2023-07-31T14:20:35;4.80;;;1.73;;
40162;SDS011;25881;47.462;19.304;2023-07-31T14:23:01;7.70;;;1.77;;
40162;SDS011;25881;47.462;19.304;2023-07-31T14:25:27;4.55;;;1.60;;
40162;SDS011;25881;47.462;19.304;2023-07-31T14:27:52;6.37;;;1.80;;
40162;SDS011;25881;47.462;19.304;2023-07-31T14:30:17;4.75;;;2.22;;
40162;SDS011;25881;47.462;19.304;2023-07-31T14:32:43;4.72;;;1.65;;
40162;SDS011;25881;47.462;19.304;2023-07-31T14:35:08;9.10;;;2.05;;
40162;SDS011;25881;47.462;19.304;2023-07-31T14:37:38;5.50;;;1.60;;